createdAt,value
2023-06-14T00:02:00.722Z,2.50
2023-06-14T00:04:28.893Z,2.42
2023-06-14T00:06:57.826Z,2.10
2023-06-14T00:09:25.370Z,2.25
2023-06-14T00:11:52.646Z,2.60
2023-06-14T00:14:20.213Z,2.63
2023-06-14T00:16:47.531Z,2.53
2023-06-14T00:19:15.477Z,2.13
2023-06-14T00:21:42.819Z,2.40
2023-06-14T00:24:10.329Z,2.47
2023-06-14T00:26:37.783Z,2.60
2023-06-14T00:29:06.148Z,2.33
2023-06-14T00:31:33.337Z,2.65
2023-06-14T00:34:00.604Z,2.63
2023-06-14T00:36:27.841Z,2.63
2023-06-14T00:38:55.091Z,2.40
2023-06-14T00:41:23.232Z,2.30
2023-06-14T00:43:50.727Z,2.25
2023-06-14T00:46:17.987Z,2.30
2023-06-14T00:48:45.881Z,2.50
2023-06-14T00:51:13.219Z,2.20
2023-06-14T00:53:40.983Z,2.60
2023-06-14T00:56:08.270Z,2.47
2023-06-14T00:58:35.978Z,2.53
2023-06-14T01:01:03.691Z,2.38
2023-06-14T01:03:33.238Z,2.40
2023-06-14T01:06:42.931Z,2.80
2023-06-14T01:09:20.258Z,2.20
2023-06-14T01:12:22.313Z,2.20
2023-06-14T01:14:50.884Z,2.72
2023-06-14T01:17:20.478Z,2.38
2023-06-14T01:19:49.356Z,2.53
2023-06-14T01:22:16.775Z,2.30
2023-06-14T01:24:46.131Z,2.80
2023-06-14T01:27:16.790Z,2.35
2023-06-14T01:29:46.999Z,2.30
2023-06-14T01:32:16.478Z,2.55
2023-06-14T01:34:43.837Z,2.35
2023-06-14T01:37:12.778Z,2.10
2023-06-14T01:39:40.238Z,2.10
2023-06-14T01:42:08.120Z,2.42
2023-06-14T01:44:35.871Z,2.10
2023-06-14T01:47:03.147Z,2.60
2023-06-14T01:49:30.498Z,2.40
2023-06-14T01:51:57.815Z,2.38
2023-06-14T01:54:26.896Z,2.50
2023-06-14T01:56:54.607Z,2.33
2023-06-14T01:59:21.899Z,2.50
2023-06-14T02:01:49.248Z,2.47
2023-06-14T02:04:16.465Z,2.50
2023-06-14T02:06:43.760Z,2.10
2023-06-14T02:09:12.692Z,2.15
2023-06-14T02:11:40.015Z,2.50
2023-06-14T02:14:08.365Z,2.58
2023-06-14T02:16:37.081Z,2.60
2023-06-14T02:19:05.205Z,2.30
2023-06-14T02:21:32.547Z,2.60
2023-06-14T02:23:59.910Z,2.63
2023-06-14T02:26:30.062Z,2.30
2023-06-14T02:28:57.210Z,2.50
2023-06-14T02:31:24.452Z,2.53
2023-06-14T02:33:51.909Z,2.60
2023-06-14T02:36:19.447Z,2.60
2023-06-14T02:38:47.912Z,2.42
2023-06-14T02:41:15.238Z,2.58
2023-06-14T02:43:42.724Z,2.30
2023-06-14T02:46:09.995Z,2.85
2023-06-14T02:48:37.145Z,2.55
2023-06-14T02:51:04.392Z,2.70
2023-06-14T02:53:31.770Z,2.47
2023-06-14T02:55:59.836Z,2.65
2023-06-14T02:58:27.154Z,2.30
2023-06-14T03:00:55.266Z,2.40
2023-06-14T03:03:25.602Z,2.63
2023-06-14T03:05:55.734Z,2.60
2023-06-14T03:08:28.204Z,2.75
2023-06-14T03:10:57.293Z,2.30
2023-06-14T03:13:25.493Z,2.42
2023-06-14T03:15:53.280Z,2.30
2023-06-14T03:18:27.159Z,2.50
2023-06-14T03:20:55.376Z,2.70
2023-06-14T03:23:23.254Z,2.78
2023-06-14T03:25:50.692Z,2.75
2023-06-14T03:28:18.885Z,2.80
2023-06-14T03:30:46.091Z,2.50
2023-06-14T03:33:13.573Z,2.60
2023-06-14T03:35:42.428Z,2.67
2023-06-14T03:38:10.877Z,2.50
2023-06-14T03:40:38.563Z,2.92
2023-06-14T03:43:07.467Z,2.60
2023-06-14T03:45:34.775Z,2.90
2023-06-14T03:48:04.080Z,2.53
2023-06-14T03:50:33.327Z,2.90
2023-06-14T03:53:02.363Z,2.45
2023-06-14T03:58:03.502Z,2.80
2023-06-14T04:00:31.201Z,2.67
2023-06-14T04:02:58.632Z,2.75
2023-06-14T04:05:27.821Z,2.83
2023-06-14T04:07:57.071Z,2.88
2023-06-14T04:10:24.217Z,3.10
2023-06-14T04:12:52.858Z,2.85
2023-06-14T04:15:22.206Z,3.25
2023-06-14T04:17:58.310Z,3.20
2023-06-14T04:20:26.212Z,2.85
2023-06-14T04:22:53.817Z,2.90
2023-06-14T04:25:24.523Z,3.30
2023-06-14T04:27:53.765Z,2.80
2023-06-14T04:30:22.656Z,3.20
2023-06-14T04:32:54.886Z,3.00
2023-06-14T04:35:25.012Z,3.35
2023-06-14T04:37:54.498Z,3.38
2023-06-14T04:40:21.951Z,3.10
2023-06-14T04:42:49.960Z,3.10
2023-06-14T04:45:18.835Z,3.35
2023-06-14T04:47:47.391Z,3.10
2023-06-14T04:50:14.716Z,3.38
2023-06-14T04:52:43.611Z,3.15
2023-06-14T04:55:11.694Z,3.25
2023-06-14T04:57:39.664Z,3.58
2023-06-14T05:00:08.353Z,3.58
2023-06-14T05:02:36.886Z,3.45
2023-06-14T05:05:07.982Z,3.20
2023-06-14T05:07:35.327Z,3.45
2023-06-14T05:10:02.974Z,3.80
2023-06-14T05:12:30.572Z,3.28
2023-06-14T05:14:59.646Z,3.35
2023-06-14T05:17:29.067Z,3.45
2023-06-14T05:19:57.127Z,3.45
2023-06-14T05:22:24.317Z,3.25
2023-06-14T05:24:52.027Z,3.83
2023-06-14T05:27:19.249Z,3.58
2023-06-14T05:29:46.435Z,3.28
2023-06-14T05:32:13.604Z,2.92
2023-06-14T05:34:40.905Z,3.42
2023-06-14T05:37:08.471Z,3.58
2023-06-14T05:39:35.611Z,3.53
2023-06-14T05:42:02.791Z,3.67
2023-06-14T05:44:29.950Z,3.30
2023-06-14T05:46:57.204Z,3.25
2023-06-14T05:49:24.569Z,3.30
2023-06-14T05:51:52.408Z,4.25
2023-06-14T05:54:19.643Z,3.40
2023-06-14T05:56:46.866Z,3.22
2023-06-14T05:59:13.966Z,3.40
2023-06-14T06:01:41.530Z,3.03
2023-06-14T06:04:08.978Z,3.33
2023-06-14T06:06:36.814Z,2.90
2023-06-14T06:09:04.240Z,3.20
2023-06-14T06:11:44.205Z,3.05
2023-06-14T06:14:16.097Z,2.97
2023-06-14T06:16:43.359Z,3.08
2023-06-14T06:19:10.707Z,3.13
2023-06-14T06:21:37.822Z,2.88
2023-06-14T06:24:06.944Z,2.97
2023-06-14T06:26:34.184Z,2.97
2023-06-14T06:29:01.462Z,2.67
2023-06-14T06:31:28.905Z,2.67
2023-06-14T06:33:56.512Z,2.55
2023-06-14T06:36:23.810Z,2.67
2023-06-14T06:38:51.509Z,2.60
2023-06-14T06:41:19.676Z,2.53
2023-06-14T06:43:46.840Z,2.38
2023-06-14T06:46:19.225Z,2.40
2023-06-14T06:48:46.421Z,2.28
2023-06-14T06:51:14.102Z,2.50
2023-06-14T06:53:48.120Z,2.50
2023-06-14T06:56:17.611Z,2.70
2023-06-14T06:58:44.952Z,2.38
2023-06-14T07:01:13.045Z,2.47
2023-06-14T07:03:40.407Z,2.35
2023-06-14T07:06:07.811Z,2.60
2023-06-14T07:08:35.443Z,2.42
2023-06-14T07:11:03.379Z,2.40
2023-06-14T07:13:30.662Z,2.83
2023-06-14T07:16:01.905Z,2.50
2023-06-14T07:18:30.842Z,2.50
2023-06-14T07:20:58.269Z,2.42
2023-06-14T07:23:25.951Z,2.08
2023-06-14T07:25:53.265Z,2.58
2023-06-14T07:28:20.675Z,2.55
2023-06-14T07:30:49.579Z,2.60
2023-06-14T07:33:16.852Z,2.33
2023-06-14T07:35:44.493Z,2.28
2023-06-14T07:38:11.878Z,2.35
2023-06-14T07:40:39.039Z,2.20
2023-06-14T07:43:07.000Z,2.28
2023-06-14T07:45:34.447Z,2.47
2023-06-14T07:48:01.821Z,2.30
2023-06-14T07:50:29.778Z,2.38
2023-06-14T07:52:57.478Z,2.30
2023-06-14T07:55:26.489Z,2.35
2023-06-14T07:57:53.677Z,2.20
2023-06-14T08:00:21.719Z,2.20
2023-06-14T08:02:49.078Z,2.10
2023-06-14T08:05:16.526Z,2.30
2023-06-14T08:07:43.901Z,1.98
2023-06-14T08:10:11.290Z,2.38
2023-06-14T08:12:39.046Z,2.35
2023-06-14T08:15:13.760Z,2.10
2023-06-14T08:17:43.975Z,1.83
2023-06-14T08:20:12.496Z,1.60
2023-06-14T08:22:40.876Z,2.03
2023-06-14T08:25:08.836Z,1.55
2023-06-14T08:27:36.836Z,1.73
2023-06-14T08:30:04.796Z,1.40
2023-06-14T08:32:32.110Z,1.60
2023-06-14T08:35:05.568Z,1.50
2023-06-14T08:37:34.665Z,1.52
2023-06-14T08:40:04.439Z,1.60
2023-06-14T08:42:33.641Z,1.73
2023-06-14T08:45:00.932Z,1.90
2023-06-14T08:47:30.522Z,1.75
2023-06-14T08:49:59.765Z,1.70
2023-06-14T08:52:31.374Z,1.90
2023-06-14T08:55:01.172Z,1.52
2023-06-14T08:57:31.634Z,2.00
2023-06-14T09:00:06.053Z,1.80
2023-06-14T09:02:36.472Z,1.70
2023-06-14T09:05:04.235Z,1.88
2023-06-14T09:07:31.460Z,1.65
2023-06-14T09:10:16.621Z,1.80
2023-06-14T09:12:44.694Z,1.75
2023-06-14T09:15:12.024Z,1.58
2023-06-14T09:17:40.323Z,1.98
2023-06-14T09:20:20.582Z,1.90
2023-06-14T09:22:48.177Z,1.55
2023-06-14T09:25:33.756Z,1.60
2023-06-14T09:28:09.373Z,1.63
2023-06-14T09:30:41.178Z,2.00
2023-06-14T09:33:08.795Z,2.63
2023-06-14T09:35:37.153Z,1.90
2023-06-14T09:38:05.172Z,1.80
2023-06-14T09:40:37.093Z,1.75
2023-06-14T09:43:11.246Z,1.80
2023-06-14T09:45:41.168Z,1.77
2023-06-14T09:48:10.174Z,1.48
2023-06-14T09:50:37.811Z,1.45
2023-06-14T09:53:08.896Z,1.52
2023-06-14T09:55:38.872Z,1.67
2023-06-14T09:58:08.815Z,1.60
2023-06-14T10:00:38.478Z,1.73
2023-06-14T10:03:19.436Z,1.52
2023-06-14T10:05:49.335Z,1.70
2023-06-14T10:08:19.918Z,1.60
2023-06-14T10:10:47.769Z,1.50
2023-06-14T10:13:15.649Z,1.35
2023-06-14T10:16:18.674Z,1.20
2023-06-14T10:19:15.767Z,1.45
2023-06-14T10:21:50.765Z,1.50
2023-06-14T10:24:19.993Z,1.33
2023-06-14T10:27:00.077Z,1.30
2023-06-14T10:29:35.110Z,1.45
2023-06-14T10:32:04.577Z,1.40
2023-06-14T10:34:32.840Z,1.27
2023-06-14T10:37:08.642Z,1.90
2023-06-14T10:39:50.207Z,1.42
2023-06-14T10:42:17.835Z,1.23
2023-06-14T10:44:56.561Z,1.08
2023-06-14T10:47:29.141Z,1.35
2023-06-14T10:50:04.188Z,1.38
2023-06-14T10:52:36.801Z,1.48
2023-06-14T10:55:10.647Z,1.30
2023-06-14T11:00:14.106Z,1.38
2023-06-14T11:03:26.894Z,1.25
2023-06-14T11:05:59.399Z,1.50
2023-06-14T11:09:23.556Z,1.30
2023-06-14T11:11:52.440Z,1.23
2023-06-14T11:14:20.558Z,1.30
2023-06-14T11:16:51.552Z,1.40
2023-06-14T11:19:18.958Z,1.40
2023-06-14T11:21:49.552Z,1.30
2023-06-14T11:24:18.117Z,1.25
2023-06-14T11:26:45.362Z,1.10
2023-06-14T11:29:12.628Z,1.40
2023-06-14T11:31:46.688Z,1.40
2023-06-14T11:34:14.748Z,1.30
2023-06-14T11:36:42.822Z,1.55
2023-06-14T11:39:10.203Z,1.40
2023-06-14T11:41:45.871Z,1.40
2023-06-14T11:44:13.398Z,1.30
2023-06-14T11:46:41.040Z,1.35
2023-06-14T11:49:10.357Z,1.40
2023-06-14T11:51:38.199Z,1.40
2023-06-14T11:54:08.522Z,1.30
2023-06-14T11:56:37.526Z,1.20
2023-06-14T11:59:06.895Z,1.23
2023-06-14T12:01:39.522Z,1.20
2023-06-14T12:04:07.139Z,1.30
2023-06-14T12:06:34.993Z,1.42
2023-06-14T12:09:14.101Z,1.23
2023-06-14T12:11:41.914Z,1.35
2023-06-14T12:14:10.792Z,1.30
2023-06-14T12:16:41.256Z,1.30
2023-06-14T12:19:19.029Z,1.35
2023-06-14T12:21:53.323Z,1.08
2023-06-14T12:24:20.908Z,1.40
2023-06-14T12:26:48.336Z,1.30
2023-06-14T12:29:15.934Z,1.30
2023-06-14T12:31:43.422Z,1.30
2023-06-14T12:34:11.140Z,1.33
2023-06-14T12:36:43.101Z,1.13
2023-06-14T12:39:10.708Z,1.35
2023-06-14T12:41:38.441Z,1.40
2023-06-14T12:44:05.989Z,1.15
2023-06-14T12:46:34.737Z,1.10
2023-06-14T12:49:02.444Z,1.30
2023-06-14T12:51:29.806Z,1.35
2023-06-14T12:53:57.265Z,1.10
2023-06-14T12:56:25.176Z,1.15
2023-06-14T12:58:52.670Z,1.20
2023-06-14T13:01:21.043Z,1.33
2023-06-14T13:03:49.230Z,1.20
2023-06-14T13:06:16.514Z,1.42
2023-06-14T13:08:44.191Z,1.33
2023-06-14T13:11:11.608Z,1.73
2023-06-14T13:13:39.866Z,1.23
2023-06-14T13:16:07.244Z,1.45
2023-06-14T13:18:35.022Z,1.33
2023-06-14T13:21:02.437Z,1.38
2023-06-14T13:23:29.901Z,1.48
2023-06-14T13:25:57.163Z,1.20
2023-06-14T13:28:24.390Z,1.27
2023-06-14T13:30:51.892Z,1.45
2023-06-14T13:33:19.224Z,1.38
2023-06-14T13:35:46.581Z,1.27
2023-06-14T13:38:15.949Z,1.20
2023-06-14T13:40:43.183Z,1.63
2023-06-14T13:43:11.267Z,1.17
2023-06-14T13:45:38.557Z,1.25
2023-06-14T13:48:06.697Z,1.33
2023-06-14T13:50:34.561Z,1.55
2023-06-14T13:53:01.928Z,1.42
2023-06-14T13:55:29.164Z,1.33
2023-06-14T13:57:57.726Z,1.40
2023-06-14T14:00:25.205Z,1.40
2023-06-14T14:02:52.789Z,1.38
2023-06-14T14:05:21.815Z,1.20
2023-06-14T14:07:49.394Z,1.30
2023-06-14T14:10:16.966Z,1.30
2023-06-14T14:12:44.397Z,1.48
2023-06-14T14:15:14.329Z,1.30
2023-06-14T14:17:42.568Z,1.30
2023-06-14T14:20:12.923Z,1.30
2023-06-14T14:22:40.225Z,1.25
2023-06-14T14:25:07.824Z,1.20
2023-06-14T14:27:35.139Z,1.30
2023-06-14T14:30:02.598Z,1.10
2023-06-14T14:32:29.871Z,1.50
2023-06-14T14:34:57.142Z,1.13
2023-06-14T14:37:24.393Z,1.20
2023-06-14T14:39:51.625Z,1.13
2023-06-14T14:42:19.565Z,1.40
2023-06-14T14:44:46.864Z,1.40
2023-06-14T14:47:14.182Z,1.30
2023-06-14T14:49:42.932Z,1.20
2023-06-14T14:52:22.817Z,1.15
2023-06-14T14:54:51.008Z,1.38
2023-06-14T14:57:18.186Z,1.30
2023-06-14T14:59:45.476Z,1.40
2023-06-14T15:02:13.025Z,1.30
2023-06-14T15:04:40.595Z,1.30
2023-06-14T15:07:07.982Z,1.42
2023-06-14T15:09:35.520Z,1.30
2023-06-14T15:12:03.903Z,1.40
2023-06-14T15:14:31.446Z,1.30
2023-06-14T15:16:59.673Z,1.48
2023-06-14T15:19:27.092Z,1.50
2023-06-14T15:21:54.430Z,1.35
2023-06-14T15:24:33.987Z,1.73
2023-06-14T15:27:08.802Z,1.50
2023-06-14T15:29:36.284Z,1.35
2023-06-14T15:32:03.801Z,1.50
2023-06-14T15:34:31.052Z,1.40
2023-06-14T15:36:58.423Z,1.23
2023-06-14T15:39:26.020Z,1.90
2023-06-14T15:41:53.584Z,1.40
2023-06-14T15:44:20.827Z,1.60
2023-06-14T15:46:49.504Z,1.48
2023-06-14T15:49:19.295Z,1.50
2023-06-14T15:51:46.675Z,1.40
2023-06-14T15:54:13.974Z,1.52
2023-06-14T15:56:41.291Z,1.52
2023-06-14T15:59:08.623Z,1.50
2023-06-14T16:01:36.097Z,1.60
2023-06-14T16:04:03.652Z,3.00
2023-06-14T16:06:30.849Z,1.60
2023-06-14T16:08:58.014Z,1.70
2023-06-14T16:11:25.348Z,1.80
2023-06-14T16:13:53.561Z,1.70
2023-06-14T16:16:21.977Z,1.80
2023-06-14T16:18:50.257Z,1.75
2023-06-14T16:21:17.841Z,2.05
2023-06-14T16:23:45.419Z,1.83
2023-06-14T16:26:16.166Z,1.70
2023-06-14T16:28:43.533Z,1.50
2023-06-14T16:31:20.114Z,1.70
2023-06-14T16:33:48.555Z,2.00
2023-06-14T16:36:16.073Z,2.08
2023-06-14T16:38:43.252Z,1.70
2023-06-14T16:41:10.437Z,2.05
2023-06-14T16:43:37.651Z,1.65
2023-06-14T16:46:04.895Z,2.08
2023-06-14T16:48:32.158Z,2.00
2023-06-14T16:50:59.538Z,2.00
2023-06-14T16:53:28.226Z,1.80
2023-06-14T16:55:55.521Z,2.05
2023-06-14T16:58:22.920Z,2.10
2023-06-14T17:00:50.148Z,2.13
2023-06-14T17:03:17.455Z,2.28
2023-06-14T17:05:58.073Z,2.03
2023-06-14T17:08:26.320Z,2.33
2023-06-14T17:10:58.081Z,2.03
2023-06-14T17:13:25.705Z,1.90
2023-06-14T17:15:53.455Z,1.95
2023-06-14T17:18:20.938Z,2.35
2023-06-14T17:20:49.318Z,2.10
2023-06-14T17:23:17.586Z,2.20
2023-06-14T17:25:44.803Z,2.53
2023-06-14T17:28:12.274Z,2.10
2023-06-14T17:30:39.407Z,2.20
2023-06-14T17:33:19.400Z,2.13
2023-06-14T17:35:48.386Z,2.45
2023-06-14T17:38:16.810Z,2.10
2023-06-14T17:40:50.389Z,2.30
2023-06-14T17:43:19.430Z,2.53
2023-06-14T17:45:46.924Z,2.42
2023-06-14T17:48:14.246Z,1.98
2023-06-14T17:50:41.612Z,2.60
2023-06-14T17:53:08.831Z,2.35
2023-06-14T17:55:36.121Z,2.80
2023-06-14T17:58:06.996Z,2.38
2023-06-14T18:00:34.548Z,2.42
2023-06-14T18:03:03.150Z,2.85
2023-06-14T18:05:31.225Z,2.60
2023-06-14T18:07:58.717Z,2.60
2023-06-14T18:10:27.795Z,2.58
2023-06-14T18:12:55.233Z,2.60
2023-06-14T18:15:22.468Z,2.70
2023-06-14T18:17:53.408Z,2.53
2023-06-14T18:20:20.887Z,2.60
2023-06-14T18:22:50.221Z,2.47
2023-06-14T18:25:25.018Z,2.42
2023-06-14T18:27:52.233Z,2.50
2023-06-14T18:30:20.089Z,2.65
2023-06-14T18:32:50.142Z,2.60
2023-06-14T18:35:17.876Z,2.67
2023-06-14T18:37:45.796Z,2.70
2023-06-14T18:40:13.983Z,2.55
2023-06-14T18:42:41.365Z,2.78
2023-06-14T18:45:09.392Z,3.42
2023-06-14T18:47:37.041Z,2.30
2023-06-14T18:50:04.773Z,2.58
2023-06-14T18:52:32.058Z,2.70
2023-06-14T18:54:59.418Z,2.75
2023-06-14T18:57:27.163Z,2.97
2023-06-14T18:59:54.387Z,2.75
2023-06-14T19:02:21.510Z,3.10
2023-06-14T19:04:48.778Z,3.05
2023-06-14T19:07:16.096Z,2.92
2023-06-14T19:09:43.323Z,2.67
2023-06-14T19:12:12.825Z,2.50
2023-06-14T19:14:40.313Z,2.88
2023-06-14T19:17:10.018Z,2.78
2023-06-14T19:19:37.169Z,2.92
2023-06-14T19:22:04.810Z,2.38
2023-06-14T19:24:32.463Z,2.50
2023-06-14T19:26:59.857Z,2.60
2023-06-14T19:29:27.532Z,2.45
2023-06-14T19:31:54.948Z,2.70
2023-06-14T19:34:22.349Z,2.80
2023-06-14T19:36:49.680Z,2.90
2023-06-14T19:39:16.947Z,2.70
2023-06-14T19:41:44.892Z,2.85
2023-06-14T19:44:12.336Z,2.55
2023-06-14T19:46:39.756Z,2.72
2023-06-14T19:49:06.994Z,3.03
2023-06-14T19:51:34.229Z,2.58
2023-06-14T19:54:01.405Z,2.90
2023-06-14T19:56:28.789Z,2.60
2023-06-14T19:58:56.083Z,2.42
2023-06-14T20:01:23.399Z,2.83
2023-06-14T20:03:50.850Z,2.70
2023-06-14T20:06:18.209Z,2.67
2023-06-14T20:08:45.478Z,2.55
2023-06-14T20:11:14.176Z,2.67
2023-06-14T20:13:41.634Z,2.90
2023-06-14T20:16:08.991Z,2.53
2023-06-14T20:18:36.342Z,2.70
2023-06-14T20:21:04.347Z,2.85
2023-06-14T20:23:31.835Z,2.85
2023-06-14T20:25:59.391Z,2.90
2023-06-14T20:28:26.830Z,2.95
2023-06-14T20:30:54.088Z,2.88
2023-06-14T20:33:21.300Z,2.45
2023-06-14T20:35:48.730Z,2.80
2023-06-14T20:38:16.101Z,2.55
2023-06-14T20:40:43.405Z,2.72
2023-06-14T20:43:12.287Z,2.47
2023-06-14T20:45:40.603Z,2.42
2023-06-14T20:48:08.073Z,2.70
2023-06-14T20:50:35.718Z,2.28
2023-06-14T20:53:03.018Z,2.80
2023-06-14T20:55:30.327Z,2.60
2023-06-14T20:57:57.655Z,2.63
2023-06-14T21:00:25.073Z,2.55
2023-06-14T21:02:52.542Z,2.60
2023-06-14T21:05:20.047Z,2.70
2023-06-14T21:07:47.432Z,2.45
2023-06-14T21:10:14.785Z,2.30
2023-06-14T21:12:42.319Z,2.63
2023-06-14T21:15:10.327Z,2.47
2023-06-14T21:17:37.731Z,2.72
2023-06-14T21:20:07.357Z,2.70
2023-06-14T21:22:37.037Z,2.63
2023-06-14T21:25:04.920Z,2.65
2023-06-14T21:27:32.254Z,2.70
2023-06-14T21:29:59.645Z,2.60
2023-06-14T21:32:26.900Z,2.70
2023-06-14T21:34:54.031Z,2.60
2023-06-14T21:37:21.307Z,2.40
2023-06-14T21:39:48.750Z,2.50
2023-06-14T21:42:16.182Z,2.78
2023-06-14T21:44:47.287Z,2.85
2023-06-14T21:47:15.318Z,2.15
2023-06-14T21:49:44.684Z,2.50
2023-06-14T21:52:14.624Z,2.70
2023-06-14T21:54:44.732Z,2.42
2023-06-14T21:57:12.273Z,2.50
2023-06-14T21:59:39.350Z,2.17
2023-06-14T22:02:07.080Z,2.38
2023-06-14T22:04:34.375Z,2.53
2023-06-14T22:07:01.649Z,2.50
2023-06-14T22:09:28.934Z,2.72
2023-06-14T22:11:57.085Z,2.33
2023-06-14T22:14:24.435Z,2.50
2023-06-14T22:16:52.599Z,3.00
2023-06-14T22:19:20.137Z,2.30
2023-06-14T22:21:52.081Z,2.75
2023-06-14T22:24:19.925Z,2.70
2023-06-14T22:26:49.821Z,2.60
2023-06-14T22:29:23.787Z,2.47
2023-06-14T22:31:51.133Z,2.55
2023-06-14T22:34:19.885Z,2.60
2023-06-14T22:36:48.964Z,2.38
2023-06-14T22:39:16.320Z,2.35
2023-06-14T22:41:48.702Z,2.50
2023-06-14T22:44:19.061Z,2.35
2023-06-14T22:46:46.429Z,2.53
2023-06-14T22:49:15.851Z,2.63
2023-06-14T22:51:44.996Z,2.50
2023-06-14T22:54:12.448Z,2.60
2023-06-14T22:56:39.642Z,2.58
2023-06-14T22:59:06.907Z,2.35
2023-06-14T23:01:34.236Z,2.30
2023-06-14T23:04:01.539Z,2.47
2023-06-14T23:06:29.684Z,2.88
2023-06-14T23:08:57.422Z,2.53
2023-06-14T23:11:24.922Z,2.40
2023-06-14T23:13:54.423Z,2.80
2023-06-14T23:16:23.697Z,2.63
2023-06-14T23:18:52.512Z,2.60
2023-06-14T23:21:20.430Z,2.60
2023-06-14T23:23:49.104Z,2.53
2023-06-14T23:26:25.850Z,2.97
2023-06-14T23:28:57.279Z,2.85
2023-06-14T23:31:24.661Z,3.00
2023-06-14T23:33:54.001Z,2.53
2023-06-14T23:36:21.751Z,2.40
2023-06-14T23:38:49.431Z,2.70
2023-06-14T23:41:17.163Z,2.60
2023-06-14T23:43:46.085Z,2.50
2023-06-14T23:46:16.706Z,2.72
2023-06-14T23:48:44.551Z,2.63
2023-06-14T23:51:11.621Z,2.42
2023-06-14T23:53:39.028Z,2.78
2023-06-14T23:56:10.617Z,2.70
2023-06-14T23:58:38.648Z,2.65
